sensor_id;sensor_type;location;lat;lon;timestamp;P1;durP1;ratioP1;P2;durP2;ratioP2
29196;SDS011;62796;42.654;23.316;2023-06-10T00:01:44;19.23;;;12.68;;
29196;SDS011;62796;42.654;23.316;2023-06-10T00:04:12;20.85;;;12.80;;
29196;SDS011;62796;42.654;23.316;2023-06-10T00:06:42;16.67;;;12.23;;
29196;SDS011;62796;42.654;23.316;2023-06-10T00:09:08;15.00;;;11.80;;
29196;SDS011;62796;42.654;23.316;2023-06-10T00:11:35;16.17;;;11.10;;
29196;SDS011;62796;42.654;23.316;2023-06-10T00:14:01;17.25;;;11.25;;
29196;SDS011;62796;42.654;23.316;2023-06-10T00:16:26;16.42;;;12.40;;
29196;SDS011;62796;42.654;23.316;2023-06-10T00:18:52;16.42;;;11.85;;
29196;SDS011;62796;42.654;23.316;2023-06-10T00:21:20;17.60;;;12.70;;
29196;SDS011;62796;42.654;23.316;2023-06-10T00:23:46;13.07;;;11.10;;
29196;SDS011;62796;42.654;23.316;2023-06-10T00:26:12;13.98;;;10.80;;
29196;SDS011;62796;42.654;23.316;2023-06-10T00:28:37;13.20;;;9.90;;
29196;SDS011;62796;42.654;23.316;2023-06-10T00:31:02;12.95;;;9.40;;
29196;SDS011;62796;42.654;23.316;2023-06-10T00:33:29;14.43;;;9.43;;
29196;SDS011;62796;42.654;23.316;2023-06-10T00:35:55;14.52;;;8.93;;
29196;SDS011;62796;42.654;23.316;2023-06-10T00:38:20;11.05;;;8.60;;
29196;SDS011;62796;42.654;23.316;2023-06-10T00:40:45;12.77;;;8.45;;
29196;SDS011;62796;42.654;23.316;2023-06-10T00:43:11;13.13;;;8.48;;
29196;SDS011;62796;42.654;23.316;2023-06-10T00:45:36;11.23;;;8.20;;
29196;SDS011;62796;42.654;23.316;2023-06-10T00:48:02;9.93;;;7.90;;
29196;SDS011;62796;42.654;23.316;2023-06-10T00:50:28;11.65;;;8.75;;
29196;SDS011;62796;42.654;23.316;2023-06-10T00:52:56;11.52;;;8.23;;
29196;SDS011;62796;42.654;23.316;2023-06-10T00:55:22;12.18;;;8.80;;
29196;SDS011;62796;42.654;23.316;2023-06-10T00:57:48;13.25;;;8.75;;
29196;SDS011;62796;42.654;23.316;2023-06-10T01:00:15;12.35;;;9.98;;
29196;SDS011;62796;42.654;23.316;2023-06-10T01:02:40;15.13;;;10.32;;
29196;SDS011;62796;42.654;23.316;2023-06-10T01:05:07;14.60;;;9.75;;
29196;SDS011;62796;42.654;23.316;2023-06-10T01:07:36;13.10;;;10.23;;
29196;SDS011;62796;42.654;23.316;2023-06-10T01:15:08;17.70;;;11.20;;
29196;SDS011;62796;42.654;23.316;2023-06-10T01:17:36;13.40;;;10.68;;
29196;SDS011;62796;42.654;23.316;2023-06-10T01:20:18;19.05;;;11.32;;
29196;SDS011;62796;42.654;23.316;2023-06-10T01:22:44;18.60;;;10.82;;
29196;SDS011;62796;42.654;23.316;2023-06-10T01:25:10;18.38;;;10.65;;
29196;SDS011;62796;42.654;23.316;2023-06-10T01:27:36;12.30;;;9.45;;
29196;SDS011;62796;42.654;23.316;2023-06-10T01:30:07;13.18;;;9.82;;
29196;SDS011;62796;42.654;23.316;2023-06-10T01:32:40;15.15;;;9.95;;
29196;SDS011;62796;42.654;23.316;2023-06-10T01:35:10;13.88;;;9.75;;
29196;SDS011;62796;42.654;23.316;2023-06-10T01:37:37;16.38;;;10.05;;
29196;SDS011;62796;42.654;23.316;2023-06-10T01:40:04;17.65;;;10.95;;
29196;SDS011;62796;42.654;23.316;2023-06-10T01:42:31;13.90;;;10.07;;
29196;SDS011;62796;42.654;23.316;2023-06-10T01:44:57;12.25;;;10.27;;
29196;SDS011;62796;42.654;23.316;2023-06-10T01:47:23;13.23;;;10.38;;
29196;SDS011;62796;42.654;23.316;2023-06-10T01:49:48;13.98;;;10.20;;
29196;SDS011;62796;42.654;23.316;2023-06-10T01:52:13;16.05;;;10.52;;
29196;SDS011;62796;42.654;23.316;2023-06-10T01:54:39;13.25;;;9.95;;
29196;SDS011;62796;42.654;23.316;2023-06-10T01:57:05;12.68;;;10.65;;
29196;SDS011;62796;42.654;23.316;2023-06-10T01:59:31;13.13;;;10.25;;
29196;SDS011;62796;42.654;23.316;2023-06-10T02:01:56;11.82;;;9.70;;
29196;SDS011;62796;42.654;23.316;2023-06-10T02:04:22;12.43;;;9.75;;
29196;SDS011;62796;42.654;23.316;2023-06-10T02:06:47;15.27;;;10.57;;
29196;SDS011;62796;42.654;23.316;2023-06-10T02:09:13;11.40;;;9.85;;
29196;SDS011;62796;42.654;23.316;2023-06-10T02:11:38;13.52;;;9.88;;
29196;SDS011;62796;42.654;23.316;2023-06-10T02:14:04;12.15;;;9.80;;
29196;SDS011;62796;42.654;23.316;2023-06-10T02:16:29;14.57;;;9.45;;
29196;SDS011;62796;42.654;23.316;2023-06-10T02:18:56;12.32;;;8.90;;
29196;SDS011;62796;42.654;23.316;2023-06-10T02:21:21;11.77;;;8.63;;
29196;SDS011;62796;42.654;23.316;2023-06-10T02:23:47;11.30;;;8.52;;
29196;SDS011;62796;42.654;23.316;2023-06-10T02:26:12;12.07;;;9.55;;
29196;SDS011;62796;42.654;23.316;2023-06-10T02:28:38;12.32;;;9.52;;
29196;SDS011;62796;42.654;23.316;2023-06-10T02:31:03;15.07;;;9.57;;
29196;SDS011;62796;42.654;23.316;2023-06-10T02:33:28;12.25;;;10.10;;
29196;SDS011;62796;42.654;23.316;2023-06-10T02:35:54;16.00;;;10.00;;
29196;SDS011;62796;42.654;23.316;2023-06-10T02:38:20;14.18;;;10.50;;
29196;SDS011;62796;42.654;23.316;2023-06-10T02:40:46;12.80;;;9.50;;
29196;SDS011;62796;42.654;23.316;2023-06-10T02:43:11;11.85;;;9.57;;
29196;SDS011;62796;42.654;23.316;2023-06-10T02:45:37;11.25;;;9.48;;
29196;SDS011;62796;42.654;23.316;2023-06-10T02:48:02;12.73;;;9.27;;
29196;SDS011;62796;42.654;23.316;2023-06-10T02:50:28;15.00;;;10.05;;
29196;SDS011;62796;42.654;23.316;2023-06-10T02:52:53;12.90;;;9.48;;
29196;SDS011;62796;42.654;23.316;2023-06-10T02:55:18;14.25;;;9.88;;
29196;SDS011;62796;42.654;23.316;2023-06-10T02:57:44;13.80;;;9.25;;
29196;SDS011;62796;42.654;23.316;2023-06-10T03:00:09;14.23;;;9.40;;
29196;SDS011;62796;42.654;23.316;2023-06-10T03:02:36;13.88;;;9.55;;
29196;SDS011;62796;42.654;23.316;2023-06-10T03:05:04;18.13;;;9.52;;
29196;SDS011;62796;42.654;23.316;2023-06-10T03:07:30;14.70;;;9.68;;
29196;SDS011;62796;42.654;23.316;2023-06-10T03:09:56;14.10;;;8.90;;
29196;SDS011;62796;42.654;23.316;2023-06-10T03:12:21;13.43;;;9.63;;
29196;SDS011;62796;42.654;23.316;2023-06-10T03:14:47;15.43;;;11.05;;
29196;SDS011;62796;42.654;23.316;2023-06-10T03:17:12;10.38;;;9.23;;
29196;SDS011;62796;42.654;23.316;2023-06-10T03:19:38;9.13;;;7.90;;
29196;SDS011;62796;42.654;23.316;2023-06-10T03:22:10;11.60;;;8.38;;
29196;SDS011;62796;42.654;23.316;2023-06-10T03:24:36;11.63;;;8.80;;
29196;SDS011;62796;42.654;23.316;2023-06-10T03:27:06;11.05;;;9.93;;
29196;SDS011;62796;42.654;23.316;2023-06-10T03:29:32;12.48;;;9.70;;
29196;SDS011;62796;42.654;23.316;2023-06-10T03:31:58;14.13;;;9.15;;
29196;SDS011;62796;42.654;23.316;2023-06-10T03:34:23;12.05;;;8.43;;
29196;SDS011;62796;42.654;23.316;2023-06-10T03:36:49;13.10;;;9.05;;
29196;SDS011;62796;42.654;23.316;2023-06-10T03:39:14;10.38;;;8.70;;
29196;SDS011;62796;42.654;23.316;2023-06-10T03:41:40;11.00;;;8.25;;
29196;SDS011;62796;42.654;23.316;2023-06-10T03:44:06;13.93;;;9.07;;
29196;SDS011;62796;42.654;23.316;2023-06-10T03:46:32;13.25;;;10.77;;
29196;SDS011;62796;42.654;23.316;2023-06-10T03:48:57;14.02;;;10.43;;
29196;SDS011;62796;42.654;23.316;2023-06-10T03:51:25;12.43;;;9.57;;
29196;SDS011;62796;42.654;23.316;2023-06-10T03:53:51;13.60;;;9.57;;
29196;SDS011;62796;42.654;23.316;2023-06-10T03:56:16;15.02;;;9.27;;
29196;SDS011;62796;42.654;23.316;2023-06-10T03:58:42;13.50;;;9.10;;
29196;SDS011;62796;42.654;23.316;2023-06-10T04:01:07;15.05;;;8.38;;
29196;SDS011;62796;42.654;23.316;2023-06-10T04:03:33;11.93;;;7.80;;
29196;SDS011;62796;42.654;23.316;2023-06-10T04:05:58;11.30;;;7.43;;
29196;SDS011;62796;42.654;23.316;2023-06-10T04:08:23;12.10;;;7.82;;
29196;SDS011;62796;42.654;23.316;2023-06-10T04:10:49;11.38;;;7.93;;
29196;SDS011;62796;42.654;23.316;2023-06-10T04:13:14;9.70;;;7.80;;
29196;SDS011;62796;42.654;23.316;2023-06-10T04:15:40;10.50;;;8.43;;
29196;SDS011;62796;42.654;23.316;2023-06-10T04:18:06;14.27;;;9.18;;
29196;SDS011;62796;42.654;23.316;2023-06-10T04:20:31;15.07;;;8.90;;
29196;SDS011;62796;42.654;23.316;2023-06-10T04:22:57;11.15;;;8.90;;
29196;SDS011;62796;42.654;23.316;2023-06-10T04:25:22;10.90;;;8.27;;
29196;SDS011;62796;42.654;23.316;2023-06-10T04:27:49;15.32;;;8.38;;
29196;SDS011;62796;42.654;23.316;2023-06-10T04:30:15;12.10;;;8.00;;
29196;SDS011;62796;42.654;23.316;2023-06-10T04:32:41;11.68;;;9.38;;
29196;SDS011;62796;42.654;23.316;2023-06-10T04:35:07;14.80;;;12.32;;
29196;SDS011;62796;42.654;23.316;2023-06-10T04:37:33;16.90;;;13.50;;
29196;SDS011;62796;42.654;23.316;2023-06-10T04:39:58;16.83;;;12.65;;
29196;SDS011;62796;42.654;23.316;2023-06-10T04:42:24;16.45;;;12.25;;
29196;SDS011;62796;42.654;23.316;2023-06-10T04:44:49;20.02;;;12.73;;
29196;SDS011;62796;42.654;23.316;2023-06-10T04:47:15;16.65;;;12.68;;
29196;SDS011;62796;42.654;23.316;2023-06-10T04:49:42;14.75;;;12.85;;
29196;SDS011;62796;42.654;23.316;2023-06-10T04:52:07;15.63;;;12.38;;
29196;SDS011;62796;42.654;23.316;2023-06-10T04:54:33;18.27;;;13.48;;
29196;SDS011;62796;42.654;23.316;2023-06-10T04:56:58;17.88;;;13.60;;
29196;SDS011;62796;42.654;23.316;2023-06-10T04:59:25;19.13;;;14.30;;
29196;SDS011;62796;42.654;23.316;2023-06-10T05:01:50;19.60;;;14.40;;
29196;SDS011;62796;42.654;23.316;2023-06-10T05:04:16;18.10;;;14.20;;
29196;SDS011;62796;42.654;23.316;2023-06-10T05:06:41;18.13;;;14.32;;
29196;SDS011;62796;42.654;23.316;2023-06-10T05:09:07;18.30;;;14.27;;
29196;SDS011;62796;42.654;23.316;2023-06-10T05:11:32;20.33;;;14.85;;
29196;SDS011;62796;42.654;23.316;2023-06-10T05:13:57;17.52;;;14.10;;
29196;SDS011;62796;42.654;23.316;2023-06-10T05:16:23;20.08;;;14.48;;
29196;SDS011;62796;42.654;23.316;2023-06-10T05:18:48;18.73;;;15.02;;
29196;SDS011;62796;42.654;23.316;2023-06-10T05:21:15;20.05;;;15.00;;
29196;SDS011;62796;42.654;23.316;2023-06-10T05:23:41;18.92;;;15.68;;
29196;SDS011;62796;42.654;23.316;2023-06-10T05:26:06;20.85;;;14.63;;
29196;SDS011;62796;42.654;23.316;2023-06-10T05:28:32;18.02;;;14.55;;
29196;SDS011;62796;42.654;23.316;2023-06-10T05:30:57;19.95;;;14.80;;
29196;SDS011;62796;42.654;23.316;2023-06-10T05:33:23;16.85;;;14.60;;
29196;SDS011;62796;42.654;23.316;2023-06-10T05:35:48;20.60;;;16.25;;
29196;SDS011;62796;42.654;23.316;2023-06-10T05:38:14;19.45;;;15.60;;
29196;SDS011;62796;42.654;23.316;2023-06-10T05:40:39;26.25;;;17.77;;
29196;SDS011;62796;42.654;23.316;2023-06-10T05:43:05;20.70;;;16.83;;
29196;SDS011;62796;42.654;23.316;2023-06-10T05:45:30;20.52;;;14.90;;
29196;SDS011;62796;42.654;23.316;2023-06-10T05:47:55;19.10;;;14.52;;
29196;SDS011;62796;42.654;23.316;2023-06-10T05:50:21;17.52;;;14.23;;
29196;SDS011;62796;42.654;23.316;2023-06-10T05:52:46;17.25;;;14.07;;
29196;SDS011;62796;42.654;23.316;2023-06-10T05:55:12;16.77;;;13.68;;
29196;SDS011;62796;42.654;23.316;2023-06-10T05:57:37;18.92;;;12.93;;
29196;SDS011;62796;42.654;23.316;2023-06-10T06:00:03;19.05;;;14.15;;
29196;SDS011;62796;42.654;23.316;2023-06-10T06:02:29;19.63;;;14.13;;
29196;SDS011;62796;42.654;23.316;2023-06-10T06:04:54;20.20;;;14.10;;
29196;SDS011;62796;42.654;23.316;2023-06-10T06:07:20;23.75;;;15.43;;
29196;SDS011;62796;42.654;23.316;2023-06-10T06:09:46;20.58;;;15.20;;
29196;SDS011;62796;42.654;23.316;2023-06-10T06:12:12;19.17;;;14.90;;
29196;SDS011;62796;42.654;23.316;2023-06-10T06:14:38;20.75;;;15.60;;
29196;SDS011;62796;42.654;23.316;2023-06-10T06:17:06;19.30;;;14.77;;
29196;SDS011;62796;42.654;23.316;2023-06-10T06:19:32;18.65;;;15.35;;
29196;SDS011;62796;42.654;23.316;2023-06-10T06:21:57;21.58;;;15.93;;
29196;SDS011;62796;42.654;23.316;2023-06-10T06:24:23;21.25;;;15.13;;
29196;SDS011;62796;42.654;23.316;2023-06-10T06:26:48;20.40;;;14.57;;
29196;SDS011;62796;42.654;23.316;2023-06-10T06:29:14;17.05;;;13.52;;
29196;SDS011;62796;42.654;23.316;2023-06-10T06:31:39;22.50;;;14.00;;
29196;SDS011;62796;42.654;23.316;2023-06-10T06:34:05;21.75;;;14.65;;
29196;SDS011;62796;42.654;23.316;2023-06-10T06:36:30;16.95;;;12.90;;
29196;SDS011;62796;42.654;23.316;2023-06-10T06:38:55;21.17;;;11.90;;
29196;SDS011;62796;42.654;23.316;2023-06-10T06:41:22;23.13;;;11.88;;
29196;SDS011;62796;42.654;23.316;2023-06-10T06:43:47;27.48;;;12.52;;
29196;SDS011;62796;42.654;23.316;2023-06-10T06:46:13;26.90;;;11.65;;
29196;SDS011;62796;42.654;23.316;2023-06-10T06:48:40;14.20;;;9.50;;
29196;SDS011;62796;42.654;23.316;2023-06-10T06:51:05;25.10;;;10.30;;
29196;SDS011;62796;42.654;23.316;2023-06-10T06:53:30;24.15;;;9.95;;
29196;SDS011;62796;42.654;23.316;2023-06-10T06:55:56;16.27;;;9.13;;
29196;SDS011;62796;42.654;23.316;2023-06-10T06:58:21;14.82;;;8.40;;
29196;SDS011;62796;42.654;23.316;2023-06-10T07:00:46;26.65;;;10.77;;
29196;SDS011;62796;42.654;23.316;2023-06-10T07:03:12;15.13;;;9.40;;
29196;SDS011;62796;42.654;23.316;2023-06-10T07:05:38;22.02;;;10.15;;
29196;SDS011;62796;42.654;23.316;2023-06-10T07:08:03;20.23;;;9.32;;
29196;SDS011;62796;42.654;23.316;2023-06-10T07:10:29;18.50;;;9.68;;
29196;SDS011;62796;42.654;23.316;2023-06-10T07:12:54;12.68;;;8.90;;
29196;SDS011;62796;42.654;23.316;2023-06-10T07:15:20;19.35;;;9.40;;
29196;SDS011;62796;42.654;23.316;2023-06-10T07:17:45;22.98;;;9.18;;
29196;SDS011;62796;42.654;23.316;2023-06-10T07:20:11;14.07;;;8.00;;
29196;SDS011;62796;42.654;23.316;2023-06-10T07:22:37;17.58;;;8.05;;
29196;SDS011;62796;42.654;23.316;2023-06-10T07:25:04;16.58;;;7.90;;
29196;SDS011;62796;42.654;23.316;2023-06-10T07:27:30;13.50;;;7.63;;
29196;SDS011;62796;42.654;23.316;2023-06-10T07:29:55;11.50;;;6.65;;
29196;SDS011;62796;42.654;23.316;2023-06-10T07:32:20;11.88;;;6.25;;
29196;SDS011;62796;42.654;23.316;2023-06-10T07:34:47;10.18;;;6.10;;
29196;SDS011;62796;42.654;23.316;2023-06-10T07:37:12;10.73;;;7.03;;
29196;SDS011;62796;42.654;23.316;2023-06-10T07:39:38;14.23;;;6.13;;
29196;SDS011;62796;42.654;23.316;2023-06-10T07:42:03;14.57;;;6.63;;
29196;SDS011;62796;42.654;23.316;2023-06-10T07:44:29;13.60;;;6.55;;
29196;SDS011;62796;42.654;23.316;2023-06-10T07:46:55;7.20;;;6.07;;
29196;SDS011;62796;42.654;23.316;2023-06-10T07:49:20;9.85;;;6.30;;
29196;SDS011;62796;42.654;23.316;2023-06-10T07:51:45;9.77;;;5.78;;
29196;SDS011;62796;42.654;23.316;2023-06-10T07:54:12;8.13;;;6.35;;
29196;SDS011;62796;42.654;23.316;2023-06-10T07:56:38;10.25;;;6.30;;
29196;SDS011;62796;42.654;23.316;2023-06-10T07:59:04;12.77;;;6.90;;
29196;SDS011;62796;42.654;23.316;2023-06-10T08:01:29;14.85;;;7.28;;
29196;SDS011;62796;42.654;23.316;2023-06-10T08:03:56;9.90;;;6.95;;
29196;SDS011;62796;42.654;23.316;2023-06-10T08:06:21;15.52;;;7.85;;
29196;SDS011;62796;42.654;23.316;2023-06-10T08:08:47;12.70;;;6.97;;
29196;SDS011;62796;42.654;23.316;2023-06-10T08:11:13;9.52;;;5.85;;
29196;SDS011;62796;42.654;23.316;2023-06-10T08:13:38;11.15;;;5.38;;
29196;SDS011;62796;42.654;23.316;2023-06-10T08:16:04;9.95;;;6.00;;
29196;SDS011;62796;42.654;23.316;2023-06-10T08:18:30;6.00;;;5.40;;
29196;SDS011;62796;42.654;23.316;2023-06-10T08:20:56;10.05;;;5.82;;
29196;SDS011;62796;42.654;23.316;2023-06-10T08:23:21;13.07;;;5.07;;
29196;SDS011;62796;42.654;23.316;2023-06-10T08:25:46;6.68;;;4.90;;
29196;SDS011;62796;42.654;23.316;2023-06-10T08:28:12;8.18;;;5.25;;
29196;SDS011;62796;42.654;23.316;2023-06-10T08:30:37;7.45;;;5.50;;
29196;SDS011;62796;42.654;23.316;2023-06-10T08:33:03;12.15;;;5.07;;
29196;SDS011;62796;42.654;23.316;2023-06-10T08:35:28;8.60;;;5.30;;
29196;SDS011;62796;42.654;23.316;2023-06-10T08:37:54;10.85;;;5.32;;
29196;SDS011;62796;42.654;23.316;2023-06-10T08:40:19;10.90;;;5.10;;
29196;SDS011;62796;42.654;23.316;2023-06-10T08:43:02;10.45;;;5.00;;
29196;SDS011;62796;42.654;23.316;2023-06-10T08:45:29;6.72;;;4.65;;
29196;SDS011;62796;42.654;23.316;2023-06-10T08:48:00;6.53;;;3.92;;
29196;SDS011;62796;42.654;23.316;2023-06-10T08:50:37;4.93;;;3.88;;
29196;SDS011;62796;42.654;23.316;2023-06-10T08:53:06;7.88;;;3.75;;
29196;SDS011;62796;42.654;23.316;2023-06-10T08:55:36;5.10;;;3.92;;
29196;SDS011;62796;42.654;23.316;2023-06-10T08:58:03;6.85;;;3.47;;
29196;SDS011;62796;42.654;23.316;2023-06-10T09:00:29;7.10;;;3.90;;
29196;SDS011;62796;42.654;23.316;2023-06-10T09:02:56;9.48;;;4.03;;
29196;SDS011;62796;42.654;23.316;2023-06-10T09:05:23;4.15;;;3.67;;
29196;SDS011;62796;42.654;23.316;2023-06-10T09:07:49;8.02;;;4.47;;
29196;SDS011;62796;42.654;23.316;2023-06-10T09:10:17;6.28;;;4.43;;
29196;SDS011;62796;42.654;23.316;2023-06-10T09:12:42;6.25;;;4.50;;
29196;SDS011;62796;42.654;23.316;2023-06-10T09:15:08;6.22;;;4.15;;
29196;SDS011;62796;42.654;23.316;2023-06-10T09:17:34;9.18;;;4.35;;
29196;SDS011;62796;42.654;23.316;2023-06-10T09:20:01;7.72;;;4.43;;
29196;SDS011;62796;42.654;23.316;2023-06-10T09:22:28;6.15;;;4.70;;
29196;SDS011;62796;42.654;23.316;2023-06-10T09:25:01;5.80;;;4.35;;
29196;SDS011;62796;42.654;23.316;2023-06-10T09:27:30;8.85;;;4.60;;
29196;SDS011;62796;42.654;23.316;2023-06-10T09:29:57;7.97;;;4.57;;
29196;SDS011;62796;42.654;23.316;2023-06-10T09:32:23;5.13;;;3.80;;
29196;SDS011;62796;42.654;23.316;2023-06-10T09:34:49;6.55;;;4.10;;
29196;SDS011;62796;42.654;23.316;2023-06-10T09:37:25;10.18;;;4.45;;
29196;SDS011;62796;42.654;23.316;2023-06-10T09:40:03;7.95;;;3.70;;
29196;SDS011;62796;42.654;23.316;2023-06-10T09:42:32;9.48;;;4.45;;
29196;SDS011;62796;42.654;23.316;2023-06-10T09:44:58;6.40;;;4.03;;
29196;SDS011;62796;42.654;23.316;2023-06-10T09:47:24;5.22;;;4.05;;
29196;SDS011;62796;42.654;23.316;2023-06-10T09:49:50;3.67;;;3.20;;
29196;SDS011;62796;42.654;23.316;2023-06-10T09:52:24;4.93;;;3.47;;
29196;SDS011;62796;42.654;23.316;2023-06-10T09:54:51;6.25;;;3.95;;
29196;SDS011;62796;42.654;23.316;2023-06-10T09:57:17;5.25;;;3.38;;
29196;SDS011;62796;42.654;23.316;2023-06-10T09:59:44;6.82;;;3.67;;
29196;SDS011;62796;42.654;23.316;2023-06-10T10:02:17;7.22;;;4.85;;
29196;SDS011;62796;42.654;23.316;2023-06-10T10:04:43;5.32;;;3.97;;
29196;SDS011;62796;42.654;23.316;2023-06-10T10:07:09;5.28;;;3.70;;
29196;SDS011;62796;42.654;23.316;2023-06-10T10:09:39;4.97;;;3.13;;
29196;SDS011;62796;42.654;23.316;2023-06-10T10:12:07;3.85;;;3.33;;
29196;SDS011;62796;42.654;23.316;2023-06-10T10:14:39;6.13;;;3.35;;
29196;SDS011;62796;42.654;23.316;2023-06-10T10:17:10;4.32;;;3.55;;
29196;SDS011;62796;42.654;23.316;2023-06-10T10:19:53;4.72;;;3.53;;
29196;SDS011;62796;42.654;23.316;2023-06-10T10:22:29;4.00;;;3.22;;
29196;SDS011;62796;42.654;23.316;2023-06-10T10:25:01;5.55;;;3.20;;
29196;SDS011;62796;42.654;23.316;2023-06-10T10:27:36;6.28;;;3.45;;
29196;SDS011;62796;42.654;23.316;2023-06-10T10:30:06;4.80;;;3.28;;
29196;SDS011;62796;42.654;23.316;2023-06-10T10:32:35;6.25;;;3.55;;
29196;SDS011;62796;42.654;23.316;2023-06-10T10:37:37;5.82;;;4.10;;
29196;SDS011;62796;42.654;23.316;2023-06-10T10:40:04;6.32;;;3.53;;
29196;SDS011;62796;42.654;23.316;2023-06-10T10:42:32;6.10;;;3.45;;
29196;SDS011;62796;42.654;23.316;2023-06-10T10:44:58;4.15;;;3.50;;
29196;SDS011;62796;42.654;23.316;2023-06-10T10:47:25;5.47;;;3.60;;
29196;SDS011;62796;42.654;23.316;2023-06-10T10:49:54;3.95;;;3.13;;
29196;SDS011;62796;42.654;23.316;2023-06-10T10:52:19;4.25;;;3.53;;
29196;SDS011;62796;42.654;23.316;2023-06-10T10:54:46;3.97;;;3.00;;
29196;SDS011;62796;42.654;23.316;2023-06-10T10:57:12;6.55;;;3.60;;
29196;SDS011;62796;42.654;23.316;2023-06-10T10:59:43;6.68;;;3.50;;
29196;SDS011;62796;42.654;23.316;2023-06-10T11:05:12;4.55;;;3.58;;
29196;SDS011;62796;42.654;23.316;2023-06-10T11:07:40;5.55;;;3.58;;
29196;SDS011;62796;42.654;23.316;2023-06-10T11:10:06;3.58;;;3.00;;
29196;SDS011;62796;42.654;23.316;2023-06-10T11:15:10;5.35;;;3.63;;
29196;SDS011;62796;42.654;23.316;2023-06-10T11:17:36;3.90;;;3.13;;
29196;SDS011;62796;42.654;23.316;2023-06-10T11:20:02;5.65;;;3.30;;
29196;SDS011;62796;42.654;23.316;2023-06-10T11:22:28;5.07;;;3.33;;
29196;SDS011;62796;42.654;23.316;2023-06-10T11:24:53;8.60;;;3.97;;
29196;SDS011;62796;42.654;23.316;2023-06-10T11:27:19;4.65;;;3.60;;
29196;SDS011;62796;42.654;23.316;2023-06-10T11:32:31;4.50;;;4.10;;
29196;SDS011;62796;42.654;23.316;2023-06-10T11:34:58;5.03;;;3.97;;
29196;SDS011;62796;42.654;23.316;2023-06-10T11:37:24;5.38;;;4.18;;
29196;SDS011;62796;42.654;23.316;2023-06-10T11:39:53;4.45;;;3.80;;
29196;SDS011;62796;42.654;23.316;2023-06-10T11:42:19;5.13;;;4.00;;
29196;SDS011;62796;42.654;23.316;2023-06-10T11:44:52;5.88;;;4.35;;
29196;SDS011;62796;42.654;23.316;2023-06-10T11:47:18;7.23;;;4.00;;
29196;SDS011;62796;42.654;23.316;2023-06-10T11:49:45;6.03;;;4.00;;
29196;SDS011;62796;42.654;23.316;2023-06-10T11:52:11;5.85;;;3.72;;
29196;SDS011;62796;42.654;23.316;2023-06-10T11:54:37;8.02;;;4.07;;
29196;SDS011;62796;42.654;23.316;2023-06-10T11:57:03;4.88;;;3.85;;
29196;SDS011;62796;42.654;23.316;2023-06-10T11:59:29;5.75;;;4.43;;
29196;SDS011;62796;42.654;23.316;2023-06-10T12:01:55;6.95;;;4.13;;
29196;SDS011;62796;42.654;23.316;2023-06-10T12:04:21;8.85;;;4.43;;
29196;SDS011;62796;42.654;23.316;2023-06-10T12:06:48;4.78;;;3.85;;
29196;SDS011;62796;42.654;23.316;2023-06-10T12:11:42;6.25;;;4.10;;
29196;SDS011;62796;42.654;23.316;2023-06-10T12:14:08;9.32;;;4.57;;
29196;SDS011;62796;42.654;23.316;2023-06-10T12:16:34;6.45;;;4.28;;
29196;SDS011;62796;42.654;23.316;2023-06-10T12:19:03;7.32;;;4.35;;
29196;SDS011;62796;42.654;23.316;2023-06-10T12:21:31;7.43;;;4.00;;
29196;SDS011;62796;42.654;23.316;2023-06-10T12:24:01;8.50;;;4.63;;
29196;SDS011;62796;42.654;23.316;2023-06-10T12:26:36;5.82;;;4.22;;
29196;SDS011;62796;42.654;23.316;2023-06-10T12:29:17;6.00;;;4.15;;
29196;SDS011;62796;42.654;23.316;2023-06-10T12:34:18;7.20;;;4.00;;
29196;SDS011;62796;42.654;23.316;2023-06-10T12:36:48;4.85;;;4.25;;
29196;SDS011;62796;42.654;23.316;2023-06-10T12:39:14;8.43;;;4.03;;
29196;SDS011;62796;42.654;23.316;2023-06-10T12:41:39;5.18;;;3.83;;
29196;SDS011;62796;42.654;23.316;2023-06-10T12:44:05;6.28;;;3.67;;
29196;SDS011;62796;42.654;23.316;2023-06-10T12:46:37;3.65;;;3.28;;
29196;SDS011;62796;42.654;23.316;2023-06-10T12:49:02;7.00;;;4.03;;
29196;SDS011;62796;42.654;23.316;2023-06-10T12:51:28;5.43;;;3.58;;
29196;SDS011;62796;42.654;23.316;2023-06-10T12:53:53;8.23;;;4.45;;
29196;SDS011;62796;42.654;23.316;2023-06-10T12:56:18;7.18;;;4.07;;
29196;SDS011;62796;42.654;23.316;2023-06-10T12:58:44;8.77;;;4.10;;
29196;SDS011;62796;42.654;23.316;2023-06-10T13:01:09;8.85;;;3.20;;
29196;SDS011;62796;42.654;23.316;2023-06-10T13:03:35;10.13;;;3.97;;
29196;SDS011;62796;42.654;23.316;2023-06-10T13:06:00;9.63;;;3.90;;
29196;SDS011;62796;42.654;23.316;2023-06-10T13:08:25;6.50;;;3.70;;
29196;SDS011;62796;42.654;23.316;2023-06-10T13:10:51;5.13;;;3.75;;
29196;SDS011;62796;42.654;23.316;2023-06-10T13:13:16;4.22;;;3.80;;
29196;SDS011;62796;42.654;23.316;2023-06-10T13:15:42;11.13;;;4.70;;
29196;SDS011;62796;42.654;23.316;2023-06-10T13:18:08;8.20;;;4.15;;
29196;SDS011;62796;42.654;23.316;2023-06-10T13:20:33;9.65;;;3.88;;
29196;SDS011;62796;42.654;23.316;2023-06-10T13:22:59;6.15;;;4.10;;
29196;SDS011;62796;42.654;23.316;2023-06-10T13:25:25;6.55;;;4.03;;
29196;SDS011;62796;42.654;23.316;2023-06-10T13:27:50;11.27;;;4.38;;
29196;SDS011;62796;42.654;23.316;2023-06-10T13:30:16;10.43;;;4.55;;
29196;SDS011;62796;42.654;23.316;2023-06-10T13:32:41;9.82;;;4.97;;
29196;SDS011;62796;42.654;23.316;2023-06-10T13:35:06;10.75;;;5.28;;
29196;SDS011;62796;42.654;23.316;2023-06-10T13:37:33;10.18;;;4.68;;
29196;SDS011;62796;42.654;23.316;2023-06-10T13:39:59;10.65;;;5.15;;
29196;SDS011;62796;42.654;23.316;2023-06-10T13:42:25;13.35;;;5.00;;
29196;SDS011;62796;42.654;23.316;2023-06-10T13:44:54;8.35;;;4.85;;
29196;SDS011;62796;42.654;23.316;2023-06-10T13:47:19;10.23;;;5.05;;
29196;SDS011;62796;42.654;23.316;2023-06-10T13:49:45;10.30;;;5.63;;
29196;SDS011;62796;42.654;23.316;2023-06-10T13:52:11;9.00;;;4.60;;
29196;SDS011;62796;42.654;23.316;2023-06-10T13:54:36;8.07;;;4.45;;
29196;SDS011;62796;42.654;23.316;2023-06-10T13:57:02;8.25;;;5.00;;
29196;SDS011;62796;42.654;23.316;2023-06-10T13:59:28;11.95;;;5.75;;
29196;SDS011;62796;42.654;23.316;2023-06-10T14:01:53;13.63;;;5.07;;
29196;SDS011;62796;42.654;23.316;2023-06-10T14:04:18;8.88;;;5.20;;
29196;SDS011;62796;42.654;23.316;2023-06-10T14:06:44;10.15;;;5.30;;
29196;SDS011;62796;42.654;23.316;2023-06-10T14:09:10;9.88;;;4.97;;
29196;SDS011;62796;42.654;23.316;2023-06-10T14:11:37;8.18;;;5.60;;
29196;SDS011;62796;42.654;23.316;2023-06-10T14:14:03;8.23;;;4.63;;
29196;SDS011;62796;42.654;23.316;2023-06-10T14:16:28;6.80;;;4.20;;
29196;SDS011;62796;42.654;23.316;2023-06-10T14:18:53;7.45;;;4.93;;
29196;SDS011;62796;42.654;23.316;2023-06-10T14:21:19;9.23;;;5.40;;
29196;SDS011;62796;42.654;23.316;2023-06-10T14:23:44;8.27;;;4.60;;
29196;SDS011;62796;42.654;23.316;2023-06-10T14:26:10;6.45;;;4.50;;
29196;SDS011;62796;42.654;23.316;2023-06-10T14:28:36;5.55;;;4.55;;
29196;SDS011;62796;42.654;23.316;2023-06-10T14:31:01;6.30;;;4.57;;
29196;SDS011;62796;42.654;23.316;2023-06-10T14:33:27;7.43;;;4.75;;
29196;SDS011;62796;42.654;23.316;2023-06-10T14:35:53;6.43;;;4.50;;
29196;SDS011;62796;42.654;23.316;2023-06-10T14:38:18;7.03;;;4.80;;
29196;SDS011;62796;42.654;23.316;2023-06-10T14:40:44;6.50;;;4.47;;